Main page
METAR-TAF:

METAR-TAF

Airports :

Olsztyn-Mazury Airport

Olsztyn, Poland

latitude: 53-28-55N, longitude: 20-56-16E, elevation: 141 m

Current weather observation

The report was made 41 minutes ago, at 22:00 UTC
Wind 4 kt from the West/Southwest, varying between Southwest and West
Temperature 0°C
Humidity 74%
Pressure 1009 hPa
Visibility 10 km or more
Overcast at a height of 3100 ft

METAR: EPSY 272200Z 25004KT 220V280 9999 OVC031 M00/M04 Q1009

Time: 23:41 (22:41 UTC)

Forecast

The report was made 2 hours and 11 minutes ago, at 20:30 UTC
Forecast valid from 27 at 21 UTC to 28 at 06 UTC
Wind 5 kt from the West
Visibility 10 km or more
Broken clouds at a height of 2500 ft

TAF: EPSY 272030Z 2721/2806 27005KT 9999 BKN025

Weather observations and forecasts of more than 4000 airports (METAR and TAF reports).

The available stations are represented by yellow and red dots on the map.

Hover mouse over dot to see the name of the station.

Then click to see weather observations and forecasts.

To change the map : click on the green buttons with a black cross to zoom in, on the green button with a dash to zoom out, or on the green arrows for adjacent maps.


METAR-TAF: